sensor_id;sensor_type;location;lat;lon;timestamp;pressure;altitude;pressure_sealevel;temperature;humidity
13952;BME280;39535;52.192;9.886;2024-01-27T00:02:04;102457.75;;;5.36;77.86
13952;BME280;39535;52.192;9.886;2024-01-27T00:04:31;102445.53;;;5.32;78.29
13952;BME280;39535;52.192;9.886;2024-01-27T00:06:57;102417.78;;;5.54;78.10
13952;BME280;39535;52.192;9.886;2024-01-27T00:09:25;102412.19;;;5.42;79.32
13952;BME280;39535;52.192;9.886;2024-01-27T00:11:51;102409.53;;;5.40;79.56
13952;BME280;39535;52.192;9.886;2024-01-27T00:14:17;102394.13;;;5.43;79.75
13952;BME280;39535;52.192;9.886;2024-01-27T00:16:44;102384.78;;;5.48;79.88
13952;BME280;39535;52.192;9.886;2024-01-27T00:19:10;102388.81;;;5.40;79.48
13952;BME280;39535;52.192;9.886;2024-01-27T00:21:36;102391.41;;;5.40;80.61
13952;BME280;39535;52.192;9.886;2024-01-27T00:24:03;102379.44;;;5.69;79.25
13952;BME280;39535;52.192;9.886;2024-01-27T00:26:31;102396.00;;;5.49;79.12
13952;BME280;39535;52.192;9.886;2024-01-27T00:28:57;102395.13;;;5.48;79.61
13952;BME280;39535;52.192;9.886;2024-01-27T00:31:24;102372.03;;;5.54;80.24
13952;BME280;39535;52.192;9.886;2024-01-27T00:33:50;102364.69;;;5.68;79.81
13952;BME280;39535;52.192;9.886;2024-01-27T00:36:16;102374.47;;;5.50;79.91
13952;BME280;39535;52.192;9.886;2024-01-27T00:38:44;102382.97;;;5.20;81.20
13952;BME280;39535;52.192;9.886;2024-01-27T00:41:16;102356.97;;;5.17;81.73
13952;BME280;39535;52.192;9.886;2024-01-27T00:43:45;102329.44;;;5.46;82.02
13952;BME280;39535;52.192;9.886;2024-01-27T00:46:14;102323.34;;;5.44;82.00
13952;BME280;39535;52.192;9.886;2024-01-27T00:48:41;102314.78;;;5.47;81.58
13952;BME280;39535;52.192;9.886;2024-01-27T00:51:07;102308.16;;;5.28;82.88
13952;BME280;39535;52.192;9.886;2024-01-27T00:53:34;102304.44;;;5.47;82.47
13952;BME280;39535;52.192;9.886;2024-01-27T00:56:01;102305.31;;;5.20;83.36
13952;BME280;39535;52.192;9.886;2024-01-27T00:58:28;102294.59;;;5.36;83.44
13952;BME280;39535;52.192;9.886;2024-01-27T01:00:56;102276.72;;;5.44;83.18
13952;BME280;39535;52.192;9.886;2024-01-27T01:03:23;102279.25;;;5.43;82.77
13952;BME280;39535;52.192;9.886;2024-01-27T01:05:50;102276.41;;;5.33;83.20
13952;BME280;39535;52.192;9.886;2024-01-27T01:08:17;102279.94;;;5.64;82.79
13952;BME280;39535;52.192;9.886;2024-01-27T01:10:44;102292.72;;;5.58;82.77
13952;BME280;39535;52.192;9.886;2024-01-27T01:13:11;102293.50;;;5.55;82.77
13952;BME280;39535;52.192;9.886;2024-01-27T01:15:37;102295.91;;;5.49;83.38
13952;BME280;39535;52.192;9.886;2024-01-27T01:18:06;102282.34;;;5.58;82.97
13952;BME280;39535;52.192;9.886;2024-01-27T01:20:33;102287.53;;;5.58;83.33
13952;BME280;39535;52.192;9.886;2024-01-27T01:22:59;102284.56;;;5.46;84.10
13952;BME280;39535;52.192;9.886;2024-01-27T01:25:26;102264.94;;;5.27;84.45
13952;BME280;39535;52.192;9.886;2024-01-27T01:27:52;102243.91;;;5.43;85.05
13952;BME280;39535;52.192;9.886;2024-01-27T01:30:21;102242.00;;;5.10;85.95
13952;BME280;39535;52.192;9.886;2024-01-27T01:32:48;102223.69;;;5.31;85.70
13952;BME280;39535;52.192;9.886;2024-01-27T01:35:17;102223.06;;;5.11;86.78
13952;BME280;39535;52.192;9.886;2024-01-27T01:37:43;102203.16;;;5.10;86.79
13952;BME280;39535;52.192;9.886;2024-01-27T01:40:10;102193.16;;;4.94;87.07
13952;BME280;39535;52.192;9.886;2024-01-27T01:42:37;102191.34;;;5.18;86.09
13952;BME280;39535;52.192;9.886;2024-01-27T01:45:04;102188.44;;;5.09;87.47
13952;BME280;39535;52.192;9.886;2024-01-27T01:47:30;102166.06;;;5.10;87.34
13952;BME280;39535;52.192;9.886;2024-01-27T01:49:57;102179.44;;;4.96;86.78
13952;BME280;39535;52.192;9.886;2024-01-27T01:52:25;102183.72;;;4.96;86.70
13952;BME280;39535;52.192;9.886;2024-01-27T01:54:52;102181.72;;;5.14;86.45
13952;BME280;39535;52.192;9.886;2024-01-27T01:57:19;102185.91;;;5.11;86.34
13952;BME280;39535;52.192;9.886;2024-01-27T01:59:46;102182.44;;;5.10;86.47
13952;BME280;39535;52.192;9.886;2024-01-27T02:02:12;102203.53;;;5.23;85.58
13952;BME280;39535;52.192;9.886;2024-01-27T02:04:40;102230.88;;;4.87;86.03
13952;BME280;39535;52.192;9.886;2024-01-27T02:07:07;102208.00;;;5.00;86.44
13952;BME280;39535;52.192;9.886;2024-01-27T02:09:35;102197.66;;;5.00;86.49
13952;BME280;39535;52.192;9.886;2024-01-27T02:12:02;102191.25;;;4.88;87.20
13952;BME280;39535;52.192;9.886;2024-01-27T02:14:29;102180.63;;;4.81;87.96
13952;BME280;39535;52.192;9.886;2024-01-27T02:16:55;102164.16;;;4.51;89.00
13952;BME280;39535;52.192;9.886;2024-01-27T02:19:22;102139.53;;;4.63;89.63
13952;BME280;39535;52.192;9.886;2024-01-27T02:21:49;102118.75;;;4.87;88.27
13952;BME280;39535;52.192;9.886;2024-01-27T02:24:17;102151.88;;;4.71;87.90
13952;BME280;39535;52.192;9.886;2024-01-27T02:26:43;102158.88;;;4.74;87.96
13952;BME280;39535;52.192;9.886;2024-01-27T02:29:10;102176.06;;;4.72;87.87
13952;BME280;39535;52.192;9.886;2024-01-27T02:31:37;102164.31;;;4.56;88.71
13952;BME280;39535;52.192;9.886;2024-01-27T02:34:03;102146.81;;;4.74;89.54
13952;BME280;39535;52.192;9.886;2024-01-27T02:36:29;102143.44;;;4.51;89.31
13952;BME280;39535;52.192;9.886;2024-01-27T02:38:56;102133.63;;;4.67;89.62
13952;BME280;39535;52.192;9.886;2024-01-27T02:41:23;102148.56;;;4.75;88.85
13952;BME280;39535;52.192;9.886;2024-01-27T02:43:50;102148.34;;;4.69;88.94
13952;BME280;39535;52.192;9.886;2024-01-27T02:46:16;102134.09;;;4.55;90.33
13952;BME280;39535;52.192;9.886;2024-01-27T02:48:44;102132.13;;;4.48;89.75
13952;BME280;39535;52.192;9.886;2024-01-27T02:51:10;102136.28;;;4.68;89.68
13952;BME280;39535;52.192;9.886;2024-01-27T02:53:37;102141.63;;;4.74;89.17
13952;BME280;39535;52.192;9.886;2024-01-27T02:56:06;102144.59;;;4.60;89.22
13952;BME280;39535;52.192;9.886;2024-01-27T02:58:35;102167.31;;;4.68;88.42
13952;BME280;39535;52.192;9.886;2024-01-27T03:01:01;102153.66;;;4.47;89.17
13952;BME280;39535;52.192;9.886;2024-01-27T03:03:27;102132.19;;;4.49;90.54
13952;BME280;39535;52.192;9.886;2024-01-27T03:05:55;102111.34;;;4.45;91.38
13952;BME280;39535;52.192;9.886;2024-01-27T03:08:21;102110.72;;;4.52;91.25
13952;BME280;39535;52.192;9.886;2024-01-27T03:10:48;102141.69;;;4.76;89.88
13952;BME280;39535;52.192;9.886;2024-01-27T03:13:15;102141.78;;;4.28;91.35
13952;BME280;39535;52.192;9.886;2024-01-27T03:15:43;102130.22;;;4.68;90.17
13952;BME280;39535;52.192;9.886;2024-01-27T03:18:10;102145.78;;;4.44;90.49
13952;BME280;39535;52.192;9.886;2024-01-27T03:20:36;102134.63;;;4.45;90.99
13952;BME280;39535;52.192;9.886;2024-01-27T03:23:02;102140.72;;;4.47;90.78
13952;BME280;39535;52.192;9.886;2024-01-27T03:25:29;102144.81;;;4.40;90.87
13952;BME280;39535;52.192;9.886;2024-01-27T03:27:55;102129.56;;;4.75;90.40
13952;BME280;39535;52.192;9.886;2024-01-27T03:30:22;102159.63;;;4.71;89.72
13952;BME280;39535;52.192;9.886;2024-01-27T03:32:50;102166.66;;;4.75;89.63
13952;BME280;39535;52.192;9.886;2024-01-27T03:35:17;102163.63;;;4.62;90.24
13952;BME280;39535;52.192;9.886;2024-01-27T03:37:44;102172.47;;;4.43;90.62
13952;BME280;39535;52.192;9.886;2024-01-27T03:40:11;102155.63;;;4.54;90.15
13952;BME280;39535;52.192;9.886;2024-01-27T03:42:38;102162.41;;;4.50;90.56
13952;BME280;39535;52.192;9.886;2024-01-27T03:45:05;102158.56;;;4.65;90.42
13952;BME280;39535;52.192;9.886;2024-01-27T03:47:31;102178.84;;;4.78;88.74
13952;BME280;39535;52.192;9.886;2024-01-27T03:50:00;102201.84;;;4.45;89.20
13952;BME280;39535;52.192;9.886;2024-01-27T03:52:29;102199.34;;;4.48;89.67
13952;BME280;39535;52.192;9.886;2024-01-27T03:54:56;102197.78;;;4.27;90.54
13952;BME280;39535;52.192;9.886;2024-01-27T03:57:23;102174.78;;;4.35;90.85
13952;BME280;39535;52.192;9.886;2024-01-27T03:59:49;102159.56;;;4.43;91.46
13952;BME280;39535;52.192;9.886;2024-01-27T04:02:16;102176.03;;;4.21;91.28
13952;BME280;39535;52.192;9.886;2024-01-27T04:04:43;102162.44;;;4.02;92.52
13952;BME280;39535;52.192;9.886;2024-01-27T04:07:11;102155.25;;;3.93;93.15
13952;BME280;39535;52.192;9.886;2024-01-27T04:09:38;102140.28;;;4.09;92.43
13952;BME280;39535;52.192;9.886;2024-01-27T04:12:05;102136.16;;;3.90;93.36
13952;BME280;39535;52.192;9.886;2024-01-27T04:14:32;102135.88;;;4.06;93.16
13952;BME280;39535;52.192;9.886;2024-01-27T04:16:59;102133.34;;;4.08;92.72
13952;BME280;39535;52.192;9.886;2024-01-27T04:19:25;102131.75;;;4.11;92.45
13952;BME280;39535;52.192;9.886;2024-01-27T04:21:52;102147.13;;;4.07;92.58
13952;BME280;39535;52.192;9.886;2024-01-27T04:24:20;102152.16;;;4.04;91.45
13952;BME280;39535;52.192;9.886;2024-01-27T04:26:48;102159.91;;;4.04;91.86
13952;BME280;39535;52.192;9.886;2024-01-27T04:29:14;102160.25;;;3.89;92.28
13952;BME280;39535;52.192;9.886;2024-01-27T04:31:43;102148.03;;;4.09;92.14
13952;BME280;39535;52.192;9.886;2024-01-27T04:34:10;102167.81;;;4.32;90.48
13952;BME280;39535;52.192;9.886;2024-01-27T04:36:37;102197.94;;;4.08;90.01
13952;BME280;39535;52.192;9.886;2024-01-27T04:39:03;102207.34;;;4.30;90.09
13952;BME280;39535;52.192;9.886;2024-01-27T04:41:32;102229.59;;;4.25;88.66
13952;BME280;39535;52.192;9.886;2024-01-27T04:43:58;102221.00;;;4.26;89.24
13952;BME280;39535;52.192;9.886;2024-01-27T04:46:25;102234.38;;;4.38;88.14
13952;BME280;39535;52.192;9.886;2024-01-27T04:48:53;102259.50;;;4.42;87.91
13952;BME280;39535;52.192;9.886;2024-01-27T04:51:20;102272.25;;;4.37;87.38
13952;BME280;39535;52.192;9.886;2024-01-27T04:53:46;102286.09;;;4.15;87.60
13952;BME280;39535;52.192;9.886;2024-01-27T04:56:16;102276.41;;;4.32;87.73
13952;BME280;39535;52.192;9.886;2024-01-27T04:58:44;102301.81;;;4.44;86.13
13952;BME280;39535;52.192;9.886;2024-01-27T05:01:11;102302.97;;;4.06;89.26
13952;BME280;39535;52.192;9.886;2024-01-27T05:03:38;102288.41;;;4.32;88.39
13952;BME280;39535;52.192;9.886;2024-01-27T05:06:07;102320.75;;;4.21;86.30
13952;BME280;39535;52.192;9.886;2024-01-27T05:08:34;102327.69;;;3.99;89.21
13952;BME280;39535;52.192;9.886;2024-01-27T05:11:01;102300.50;;;3.86;89.78
13952;BME280;39535;52.192;9.886;2024-01-27T05:13:30;102280.53;;;3.60;90.95
13952;BME280;39535;52.192;9.886;2024-01-27T05:15:59;102252.53;;;3.93;90.88
13952;BME280;39535;52.192;9.886;2024-01-27T05:18:28;102252.16;;;4.06;90.90
13952;BME280;39535;52.192;9.886;2024-01-27T05:20:55;102277.56;;;4.18;88.95
13952;BME280;39535;52.192;9.886;2024-01-27T05:23:25;102272.09;;;4.09;89.81
13952;BME280;39535;52.192;9.886;2024-01-27T05:25:52;102279.03;;;3.87;90.40
13952;BME280;39535;52.192;9.886;2024-01-27T05:28:19;102272.03;;;4.07;89.98
13952;BME280;39535;52.192;9.886;2024-01-27T05:30:46;102288.81;;;4.18;88.45
13952;BME280;39535;52.192;9.886;2024-01-27T05:33:15;102326.25;;;4.30;86.88
13952;BME280;39535;52.192;9.886;2024-01-27T05:35:42;102356.53;;;4.32;86.30
13952;BME280;39535;52.192;9.886;2024-01-27T05:38:09;102370.56;;;4.39;85.79
13952;BME280;39535;52.192;9.886;2024-01-27T05:40:37;102388.19;;;4.49;84.64
13952;BME280;39535;52.192;9.886;2024-01-27T05:43:04;102418.34;;;4.49;83.62
13952;BME280;39535;52.192;9.886;2024-01-27T05:45:30;102441.31;;;4.41;83.09
13952;BME280;39535;52.192;9.886;2024-01-27T05:47:57;102470.31;;;4.34;83.24
13952;BME280;39535;52.192;9.886;2024-01-27T05:50:27;102478.97;;;4.34;82.93
13952;BME280;39535;52.192;9.886;2024-01-27T05:52:56;102491.94;;;4.36;82.66
13952;BME280;39535;52.192;9.886;2024-01-27T05:55:22;102505.59;;;4.11;83.36
13952;BME280;39535;52.192;9.886;2024-01-27T05:57:49;102488.63;;;4.17;83.86
13952;BME280;39535;52.192;9.886;2024-01-27T06:00:17;102498.97;;;4.17;83.39
13952;BME280;39535;52.192;9.886;2024-01-27T06:02:44;102501.44;;;4.14;83.48
13952;BME280;39535;52.192;9.886;2024-01-27T06:05:13;102511.56;;;4.10;82.65
13952;BME280;39535;52.192;9.886;2024-01-27T06:07:42;102514.59;;;4.00;83.35
13952;BME280;39535;52.192;9.886;2024-01-27T06:10:09;102519.16;;;4.05;83.32
13952;BME280;39535;52.192;9.886;2024-01-27T06:12:35;102527.66;;;4.03;83.16
13952;BME280;39535;52.192;9.886;2024-01-27T06:15:02;102527.78;;;4.06;82.91
13952;BME280;39535;52.192;9.886;2024-01-27T06:17:29;102519.28;;;3.87;83.77
13952;BME280;39535;52.192;9.886;2024-01-27T06:19:55;102495.44;;;3.73;85.86
13952;BME280;39535;52.192;9.886;2024-01-27T06:22:21;102471.94;;;3.88;85.09
13952;BME280;39535;52.192;9.886;2024-01-27T06:24:49;102481.66;;;3.73;84.51
13952;BME280;39535;52.192;9.886;2024-01-27T06:27:16;102461.91;;;3.54;87.41
13952;BME280;39535;52.192;9.886;2024-01-27T06:29:43;102423.44;;;3.81;86.86
13952;BME280;39535;52.192;9.886;2024-01-27T06:32:09;102415.38;;;3.73;87.92
13952;BME280;39535;52.192;9.886;2024-01-27T06:34:35;102400.69;;;3.93;86.98
13952;BME280;39535;52.192;9.886;2024-01-27T06:37:02;102417.28;;;4.00;85.80
13952;BME280;39535;52.192;9.886;2024-01-27T06:39:29;102449.56;;;4.10;84.65
13952;BME280;39535;52.192;9.886;2024-01-27T06:41:56;102460.41;;;4.01;84.85
13952;BME280;39535;52.192;9.886;2024-01-27T06:44:23;102440.91;;;3.87;86.03
13952;BME280;39535;52.192;9.886;2024-01-27T06:46:50;102428.84;;;3.87;86.91
13952;BME280;39535;52.192;9.886;2024-01-27T06:49:16;102420.16;;;3.85;86.49
13952;BME280;39535;52.192;9.886;2024-01-27T06:51:43;102438.06;;;3.81;85.86
13952;BME280;39535;52.192;9.886;2024-01-27T06:54:09;102425.56;;;3.70;88.08
13952;BME280;39535;52.192;9.886;2024-01-27T06:56:36;102422.28;;;3.53;87.47
13952;BME280;39535;52.192;9.886;2024-01-27T06:59:03;102419.91;;;3.79;87.69
13952;BME280;39535;52.192;9.886;2024-01-27T07:01:30;102425.50;;;3.90;86.80
13952;BME280;39535;52.192;9.886;2024-01-27T07:03:56;102453.22;;;3.94;85.87
13952;BME280;39535;52.192;9.886;2024-01-27T07:06:22;102473.03;;;3.93;85.15
13952;BME280;39535;52.192;9.886;2024-01-27T07:08:49;102490.34;;;3.96;84.68
13952;BME280;39535;52.192;9.886;2024-01-27T07:11:15;102496.53;;;4.00;84.53
13952;BME280;39535;52.192;9.886;2024-01-27T07:13:41;102500.75;;;3.97;84.48
13952;BME280;39535;52.192;9.886;2024-01-27T07:16:09;102506.69;;;3.95;83.88
13952;BME280;39535;52.192;9.886;2024-01-27T07:18:35;102518.72;;;3.94;83.68
13952;BME280;39535;52.192;9.886;2024-01-27T07:21:02;102511.25;;;3.81;85.26
13952;BME280;39535;52.192;9.886;2024-01-27T07:23:28;102503.63;;;3.84;84.89
13952;BME280;39535;52.192;9.886;2024-01-27T07:25:55;102511.63;;;3.90;83.90
13952;BME280;39535;52.192;9.886;2024-01-27T07:28:22;102527.56;;;3.80;84.04
13952;BME280;39535;52.192;9.886;2024-01-27T07:30:48;102528.59;;;3.84;83.93
13952;BME280;39535;52.192;9.886;2024-01-27T07:33:16;102538.13;;;3.85;84.08
13952;BME280;39535;52.192;9.886;2024-01-27T07:35:42;102530.47;;;3.88;84.40
13952;BME280;39535;52.192;9.886;2024-01-27T07:38:09;102529.47;;;3.84;84.59
13952;BME280;39535;52.192;9.886;2024-01-27T07:40:35;102530.47;;;3.88;84.23
13952;BME280;39535;52.192;9.886;2024-01-27T07:43:03;102528.41;;;3.79;84.57
13952;BME280;39535;52.192;9.886;2024-01-27T07:45:29;102514.31;;;3.72;85.96
13952;BME280;39535;52.192;9.886;2024-01-27T07:47:55;102509.38;;;3.77;85.99
13952;BME280;39535;52.192;9.886;2024-01-27T07:50:23;102486.94;;;3.76;87.11
13952;BME280;39535;52.192;9.886;2024-01-27T07:52:49;102487.94;;;3.80;86.55
13952;BME280;39535;52.192;9.886;2024-01-27T07:55:16;102492.50;;;3.85;86.56
13952;BME280;39535;52.192;9.886;2024-01-27T07:57:43;102483.91;;;3.86;86.26
13952;BME280;39535;52.192;9.886;2024-01-27T08:00:10;102495.47;;;3.94;85.66
13952;BME280;39535;52.192;9.886;2024-01-27T08:02:36;102504.28;;;4.00;85.72
13952;BME280;39535;52.192;9.886;2024-01-27T08:05:03;102485.03;;;3.72;87.53
13952;BME280;39535;52.192;9.886;2024-01-27T08:07:31;102477.09;;;3.88;87.72
13952;BME280;39535;52.192;9.886;2024-01-27T08:09:57;102461.03;;;3.95;87.07
13952;BME280;39535;52.192;9.886;2024-01-27T08:12:23;102479.50;;;4.05;86.95
13952;BME280;39535;52.192;9.886;2024-01-27T08:14:50;102480.47;;;4.07;86.77
13952;BME280;39535;52.192;9.886;2024-01-27T08:17:16;102479.63;;;4.08;86.62
13952;BME280;39535;52.192;9.886;2024-01-27T08:19:42;102482.97;;;4.05;86.71
13952;BME280;39535;52.192;9.886;2024-01-27T08:22:09;102484.78;;;4.08;86.76
13952;BME280;39535;52.192;9.886;2024-01-27T08:24:36;102487.97;;;4.01;87.25
13952;BME280;39535;52.192;9.886;2024-01-27T08:27:03;102453.53;;;4.02;88.26
13952;BME280;39535;52.192;9.886;2024-01-27T08:29:30;102460.13;;;4.16;87.71
13952;BME280;39535;52.192;9.886;2024-01-27T08:31:57;102469.78;;;4.20;87.51
13952;BME280;39535;52.192;9.886;2024-01-27T08:34:23;102468.88;;;3.97;88.26
13952;BME280;39535;52.192;9.886;2024-01-27T08:36:49;102449.78;;;4.16;88.57
13952;BME280;39535;52.192;9.886;2024-01-27T08:39:15;102453.47;;;4.00;88.21
13952;BME280;39535;52.192;9.886;2024-01-27T08:41:43;102434.13;;;4.11;88.95
13952;BME280;39535;52.192;9.886;2024-01-27T08:44:10;102445.41;;;4.13;88.42
13952;BME280;39535;52.192;9.886;2024-01-27T08:46:36;102436.16;;;4.20;88.87
13952;BME280;39535;52.192;9.886;2024-01-27T08:49:03;102426.13;;;4.28;88.59
13952;BME280;39535;52.192;9.886;2024-01-27T08:51:29;102444.03;;;4.44;87.61
13952;BME280;39535;52.192;9.886;2024-01-27T08:53:55;102451.94;;;4.49;87.61
13952;BME280;39535;52.192;9.886;2024-01-27T08:56:22;102462.38;;;4.50;86.98
13952;BME280;39535;52.192;9.886;2024-01-27T08:58:49;102477.28;;;4.57;87.27
13952;BME280;39535;52.192;9.886;2024-01-27T09:01:17;102494.81;;;4.65;86.42
13952;BME280;39535;52.192;9.886;2024-01-27T09:03:44;102499.56;;;4.54;87.16
13952;BME280;39535;52.192;9.886;2024-01-27T09:06:11;102506.91;;;4.43;87.06
13952;BME280;39535;52.192;9.886;2024-01-27T09:08:37;102506.22;;;4.70;86.65
13952;BME280;39535;52.192;9.886;2024-01-27T09:11:04;102517.19;;;4.87;86.30
13952;BME280;39535;52.192;9.886;2024-01-27T09:13:30;102532.16;;;4.94;85.80
13952;BME280;39535;52.192;9.886;2024-01-27T09:15:59;102538.75;;;4.86;85.51
13952;BME280;39535;52.192;9.886;2024-01-27T09:18:25;102542.03;;;5.04;85.04
13952;BME280;39535;52.192;9.886;2024-01-27T09:20:52;102561.09;;;5.06;84.17
13952;BME280;39535;52.192;9.886;2024-01-27T09:23:18;102576.03;;;5.13;84.30
13952;BME280;39535;52.192;9.886;2024-01-27T09:25:45;102587.66;;;5.02;84.92
13952;BME280;39535;52.192;9.886;2024-01-27T09:28:11;102593.19;;;4.89;84.97
13952;BME280;39535;52.192;9.886;2024-01-27T09:30:38;102587.84;;;5.07;84.95
13952;BME280;39535;52.192;9.886;2024-01-27T09:33:06;102582.16;;;5.15;84.65
13952;BME280;39535;52.192;9.886;2024-01-27T09:35:32;102588.56;;;5.25;84.73
13952;BME280;39535;52.192;9.886;2024-01-27T09:37:58;102584.91;;;5.20;84.35
13952;BME280;39535;52.192;9.886;2024-01-27T09:40:25;102593.59;;;5.22;84.14
13952;BME280;39535;52.192;9.886;2024-01-27T09:42:52;102587.19;;;5.12;84.96
13952;BME280;39535;52.192;9.886;2024-01-27T09:45:19;102588.13;;;5.14;85.13
13952;BME280;39535;52.192;9.886;2024-01-27T09:47:46;102587.50;;;5.20;84.90
13952;BME280;39535;52.192;9.886;2024-01-27T09:50:17;102597.81;;;5.43;84.46
13952;BME280;39535;52.192;9.886;2024-01-27T09:52:43;102616.28;;;5.52;84.09
13952;BME280;39535;52.192;9.886;2024-01-27T09:55:10;102616.59;;;5.37;84.92
13952;BME280;39535;52.192;9.886;2024-01-27T09:57:37;102616.28;;;5.52;83.80
13952;BME280;39535;52.192;9.886;2024-01-27T10:00:06;102631.91;;;5.53;84.25
13952;BME280;39535;52.192;9.886;2024-01-27T10:02:39;102644.22;;;5.59;83.74
13952;BME280;39535;52.192;9.886;2024-01-27T10:05:07;102629.16;;;5.73;84.61
13952;BME280;39535;52.192;9.886;2024-01-27T10:07:35;102615.28;;;5.71;85.97
13952;BME280;39535;52.192;9.886;2024-01-27T10:10:02;102601.84;;;5.83;83.87
13952;BME280;39535;52.192;9.886;2024-01-27T10:12:28;102600.81;;;6.02;84.21
13952;BME280;39535;52.192;9.886;2024-01-27T10:14:55;102624.56;;;6.14;83.50
13952;BME280;39535;52.192;9.886;2024-01-27T10:17:22;102637.66;;;6.17;84.04
13952;BME280;39535;52.192;9.886;2024-01-27T10:19:59;102657.47;;;6.15;82.18
13952;BME280;39535;52.192;9.886;2024-01-27T10:22:26;102669.25;;;6.31;82.41
13952;BME280;39535;52.192;9.886;2024-01-27T10:24:54;102688.25;;;6.06;82.52
13952;BME280;39535;52.192;9.886;2024-01-27T10:27:20;102678.91;;;6.35;81.98
13952;BME280;39535;52.192;9.886;2024-01-27T10:29:52;102691.28;;;6.42;81.96
13952;BME280;39535;52.192;9.886;2024-01-27T10:32:18;102716.50;;;6.22;80.99
13952;BME280;39535;52.192;9.886;2024-01-27T10:34:44;102733.09;;;6.27;81.33
13952;BME280;39535;52.192;9.886;2024-01-27T10:37:11;102739.44;;;6.35;81.62
13952;BME280;39535;52.192;9.886;2024-01-27T10:39:38;102753.06;;;6.30;80.99
13952;BME280;39535;52.192;9.886;2024-01-27T10:42:07;102742.19;;;6.16;81.65
13952;BME280;39535;52.192;9.886;2024-01-27T10:44:37;102730.56;;;6.05;81.94
13952;BME280;39535;52.192;9.886;2024-01-27T10:47:10;102711.00;;;6.13;82.78
13952;BME280;39535;52.192;9.886;2024-01-27T10:49:43;102728.22;;;6.11;81.41
13952;BME280;39535;52.192;9.886;2024-01-27T10:52:11;102713.66;;;6.14;81.87
13952;BME280;39535;52.192;9.886;2024-01-27T10:54:39;102714.53;;;6.15;82.34
13952;BME280;39535;52.192;9.886;2024-01-27T10:57:09;102710.78;;;6.07;82.58
13952;BME280;39535;52.192;9.886;2024-01-27T10:59:37;102701.28;;;6.07;82.96
13952;BME280;39535;52.192;9.886;2024-01-27T11:02:05;102685.44;;;6.24;82.53
13952;BME280;39535;52.192;9.886;2024-01-27T11:04:37;102686.22;;;6.21;83.63
13952;BME280;39535;52.192;9.886;2024-01-27T11:07:05;102678.41;;;6.45;82.76
13952;BME280;39535;52.192;9.886;2024-01-27T11:09:32;102687.31;;;6.53;81.88
13952;BME280;39535;52.192;9.886;2024-01-27T11:12:01;102691.38;;;6.45;81.69
13952;BME280;39535;52.192;9.886;2024-01-27T11:14:29;102696.50;;;6.44;81.80
13952;BME280;39535;52.192;9.886;2024-01-27T11:16:56;102685.44;;;6.49;81.81
13952;BME280;39535;52.192;9.886;2024-01-27T11:19:23;102681.78;;;6.43;82.08
13952;BME280;39535;52.192;9.886;2024-01-27T11:21:59;102665.00;;;6.59;82.02
13952;BME280;39535;52.192;9.886;2024-01-27T11:24:26;102679.19;;;6.43;82.17
13952;BME280;39535;52.192;9.886;2024-01-27T11:27:00;102670.06;;;6.30;82.31
13952;BME280;39535;52.192;9.886;2024-01-27T11:29:26;102664.28;;;6.37;82.05
13952;BME280;39535;52.192;9.886;2024-01-27T11:31:56;102664.94;;;6.31;82.47
13952;BME280;39535;52.192;9.886;2024-01-27T11:34:22;102678.81;;;6.08;82.82
13952;BME280;39535;52.192;9.886;2024-01-27T11:36:48;102653.66;;;6.29;82.87
13952;BME280;39535;52.192;9.886;2024-01-27T11:39:24;102639.34;;;6.41;82.49
13952;BME280;39535;52.192;9.886;2024-01-27T11:41:52;102649.84;;;6.45;82.67
13952;BME280;39535;52.192;9.886;2024-01-27T11:44:19;102681.50;;;6.35;81.30
13952;BME280;39535;52.192;9.886;2024-01-27T11:46:49;102732.94;;;6.47;80.09
13952;BME280;39535;52.192;9.886;2024-01-27T11:49:16;102735.16;;;6.62;79.86
13952;BME280;39535;52.192;9.886;2024-01-27T11:51:43;102738.88;;;6.94;79.01
13952;BME280;39535;52.192;9.886;2024-01-27T11:54:10;102764.41;;;6.82;80.00
13952;BME280;39535;52.192;9.886;2024-01-27T11:56:36;102777.44;;;6.83;78.36
13952;BME280;39535;52.192;9.886;2024-01-27T11:59:02;102801.53;;;7.05;78.01
13952;BME280;39535;52.192;9.886;2024-01-27T12:01:38;102798.25;;;7.10;77.96
13952;BME280;39535;52.192;9.886;2024-01-27T12:04:05;102825.50;;;6.97;77.51
13952;BME280;39535;52.192;9.886;2024-01-27T12:06:32;102849.66;;;6.95;76.58
13952;BME280;39535;52.192;9.886;2024-01-27T12:08:59;102879.50;;;7.06;75.93
13952;BME280;39535;52.192;9.886;2024-01-27T12:11:26;102897.16;;;7.16;75.40
13952;BME280;39535;52.192;9.886;2024-01-27T12:13:52;102903.22;;;7.15;76.03
13952;BME280;39535;52.192;9.886;2024-01-27T12:16:21;102909.09;;;7.35;75.36
13952;BME280;39535;52.192;9.886;2024-01-27T12:18:51;102931.53;;;7.09;73.54
13952;BME280;39535;52.192;9.886;2024-01-27T12:21:19;102925.63;;;7.38;75.26
13952;BME280;39535;52.192;9.886;2024-01-27T12:23:51;102945.91;;;7.24;75.08
13952;BME280;39535;52.192;9.886;2024-01-27T12:26:19;102929.88;;;7.61;74.92
13952;BME280;39535;52.192;9.886;2024-01-27T12:28:46;102960.13;;;7.59;73.44
13952;BME280;39535;52.192;9.886;2024-01-27T12:31:15;102967.81;;;7.82;72.69
13952;BME280;39535;52.192;9.886;2024-01-27T12:33:48;102997.94;;;7.75;71.33
13952;BME280;39535;52.192;9.886;2024-01-27T12:36:14;103020.91;;;7.88;71.37
13952;BME280;39535;52.192;9.886;2024-01-27T12:38:41;103031.41;;;8.17;70.91
13952;BME280;39535;52.192;9.886;2024-01-27T12:41:08;103056.25;;;8.34;69.80
13952;BME280;39535;52.192;9.886;2024-01-27T12:43:35;103075.22;;;8.85;69.14
13952;BME280;39535;52.192;9.886;2024-01-27T12:46:01;103099.56;;;9.14;68.83
13952;BME280;39535;52.192;9.886;2024-01-27T12:48:27;103144.00;;;8.13;70.15
13952;BME280;39535;52.192;9.886;2024-01-27T12:50:54;103112.69;;;8.61;69.89
13952;BME280;39535;52.192;9.886;2024-01-27T12:53:20;103131.81;;;8.38;70.23
13952;BME280;39535;52.192;9.886;2024-01-27T12:55:46;103154.09;;;8.29;69.20
13952;BME280;39535;52.192;9.886;2024-01-27T12:58:14;103157.78;;;7.86;70.09
13952;BME280;39535;52.192;9.886;2024-01-27T13:00:41;103152.50;;;7.83;70.96